Avon, UT

1:06 AM MST on November 27, 2014 (GMT -0700)
Mouth of BSF Canyon | Change Station
CLOSE
Current Station
Personal Weather Station
Location: Hyrum, UT
Elevation: 4829 ft
Nearby Weather Stations

Elev 4829 ft 41.63 °N, 111.82 °W | Updated 11 seconds ago

Clear
Clear
40.3 °F
Feels Like 38 °F
N
3.8
Wind Variable Wind from North
Gusts 7.6 mph

Today
High -- | Low -- °F
--% Chance of Precip.
Yesterday
High -- | Low -- °F
Precip. -- in
7:30 AM 4:59 PM
Waxing Crescent, 27% visible
Pressure 30.34 in
Visibility 10.0 miles
Clouds Clear
Windchill 38 °F
Dew Point 26 °F
Humidity 57%
Rainfall 0.00 in
Snow Depth Not available.
UV 0 out of 12
Pollen .10 out of 12
Air Quality Not available.
Flu Activity Not available.
METAR KBMC 270755Z AUTO 00000KT 10SM CLR 09/M03 A3034 RMK AO1 T00881028

More Conditions Fewer Conditions

Pressure 30.34 in
Visibility 10.0 miles
Clouds Clear
Windchill 38 °F
Dew Point 26 °F
Humidity 57%
Rainfall 0.00 in
Snow Depth Not available.
UV 0 out of 12
Pollen .10 out of 12
Air Quality Not available.
Flu Activity Not available.
METAR KBMC 270755Z AUTO 00000KT 10SM CLR 09/M03 A3034 RMK AO1 T00881028

More Conditions Fewer Conditions

10-Day Weather Forecast

Almanac

Astronomy

Nov. 27, 2014 Rise Set
Actual Time
Civil Twilight
Nautical Twilight
Astronomical Twilight
Moon
Length of Visible Light
Length of Day
Tomorrow will be .
, % of the Moon is Illuminated

Today's Extremes

State Highs State Lows

Community

WunderPhotos

Upload Photos

1,773,966 photos uploaded!

WunderBlogs® & News

Nearby

Air Quality

  Air Quality AQ Index Pollutant
Not available.

Snow Depth

Station Depth Elevation

Earthquake Activity

City Distance Mag. Time & Date
Minimum magnitude displayed is 2.5.

Coastal Water Temperatures

Place Temperature

Nearby Weather Stations